createdAt,value
2018-07-19T00:00:55.079Z,69.85
2018-07-19T00:01:55.075Z,69.31
2018-07-19T00:02:55.050Z,68.92
2018-07-19T00:03:55.036Z,68.73
2018-07-19T00:04:55.021Z,68.98
2018-07-19T00:05:55.012Z,68.79
2018-07-19T00:06:54.987Z,69.56
2018-07-19T00:07:54.990Z,69.66
2018-07-19T00:08:54.955Z,69.85
2018-07-19T00:09:54.940Z,69.75
2018-07-19T00:10:54.923Z,70.23
2018-07-19T00:11:54.907Z,70.72
2018-07-19T00:12:54.895Z,71.19
2018-07-19T00:13:54.875Z,70.90
2018-07-19T00:14:54.859Z,70.81
2018-07-19T00:15:54.841Z,70.72
2018-07-19T00:16:54.827Z,71.58
2018-07-19T00:17:54.811Z,71.29
2018-07-19T00:18:54.826Z,71.77
2018-07-19T00:19:54.781Z,72.73
2018-07-19T00:20:54.762Z,72.92
2018-07-19T00:21:54.750Z,72.73
2018-07-19T00:22:54.728Z,73.02
2018-07-19T00:23:54.709Z,73.60
2018-07-19T00:24:54.697Z,73.31
2018-07-19T00:25:54.690Z,73.60
2018-07-19T00:26:54.663Z,74.17
2018-07-19T00:27:54.648Z,74.13
2018-07-19T00:28:54.637Z,74.17
2018-07-19T00:29:54.617Z,74.23
2018-07-19T00:30:54.596Z,75.00
2018-07-19T00:31:54.578Z,74.71
2018-07-19T00:32:54.569Z,75.29
2018-07-19T00:33:54.634Z,75.29
2018-07-19T00:34:54.535Z,75.67
2018-07-19T00:35:54.513Z,76.25
2018-07-19T00:36:54.496Z,76.15
2018-07-19T00:37:54.485Z,75.87
2018-07-19T00:38:54.465Z,75.38
2018-07-19T00:39:54.452Z,75.77
2018-07-19T00:40:54.436Z,75.87
2018-07-19T00:41:54.414Z,75.87
2018-07-19T00:42:54.399Z,77.21
2018-07-19T00:43:54.382Z,76.82
2018-07-19T00:44:54.370Z,77.01
2018-07-19T00:45:54.351Z,76.82
2018-07-19T00:46:54.337Z,76.92
2018-07-19T00:47:54.314Z,77.31
2018-07-19T00:48:54.321Z,77.21
2018-07-19T00:49:54.289Z,77.17
2018-07-19T00:50:54.273Z,77.08
2018-07-19T00:51:54.248Z,77.75
2018-07-19T00:52:54.233Z,77.75
2018-07-19T00:53:54.222Z,77.46
2018-07-19T00:54:54.204Z,77.94
2018-07-19T00:55:54.214Z,77.75
2018-07-19T00:56:54.225Z,78.13
2018-07-19T00:57:54.153Z,78.80
2018-07-19T00:58:54.139Z,78.42
2018-07-19T00:59:54.122Z,78.52
2018-07-19T01:00:54.104Z,79.28
2018-07-19T01:01:54.087Z,78.80
2018-07-19T01:02:54.069Z,79.09
2018-07-19T01:03:54.053Z,79.67
2018-07-19T01:04:54.041Z,79.38
2018-07-19T01:05:54.022Z,79.47
2018-07-19T01:06:54.056Z,80.24
2018-07-19T01:07:53.988Z,80.15
2018-07-19T01:08:53.974Z,80.15
2018-07-19T01:09:53.951Z,80.05
2018-07-19T01:10:53.942Z,80.34
2018-07-19T01:11:53.921Z,79.96
2018-07-19T01:12:53.920Z,80.05
2018-07-19T01:13:53.886Z,80.15
2018-07-19T01:14:53.874Z,79.96
2018-07-19T01:15:53.852Z,79.96
2018-07-19T01:16:53.839Z,80.05
2018-07-19T01:17:53.822Z,80.24
2018-07-19T01:18:53.802Z,80.43
2018-07-19T01:19:53.792Z,80.43
2018-07-19T01:20:53.764Z,80.05
2018-07-19T01:21:53.757Z,80.15
2018-07-19T01:22:53.737Z,80.63
2018-07-19T01:23:53.727Z,80.05
2018-07-19T01:24:53.703Z,79.57
2018-07-19T01:25:53.695Z,78.90
2018-07-19T01:26:53.672Z,79.57
2018-07-19T01:27:53.652Z,79.47
2018-07-19T01:28:53.637Z,79.28
2018-07-19T01:29:53.621Z,79.57
2018-07-19T01:30:53.603Z,79.57
2018-07-19T01:31:53.582Z,79.57
2018-07-19T01:32:53.568Z,79.47
2018-07-19T01:33:53.559Z,80.15
2018-07-19T01:34:53.531Z,79.57
2018-07-19T01:35:53.510Z,79.96
2018-07-19T01:36:53.502Z,80.43
2018-07-19T01:37:53.484Z,79.96
2018-07-19T01:38:53.464Z,80.05
2018-07-19T01:39:53.447Z,80.34
2018-07-19T01:40:53.434Z,80.34
2018-07-19T01:41:53.417Z,79.09
2018-07-19T01:42:53.393Z,79.76
2018-07-19T01:43:53.383Z,79.86
2018-07-19T01:44:53.367Z,80.15
2018-07-19T01:45:53.350Z,80.11
2018-07-19T01:46:53.334Z,80.11
2018-07-19T01:47:53.314Z,79.91
2018-07-19T01:48:53.294Z,79.63
2018-07-19T01:49:53.276Z,80.20
2018-07-19T01:50:53.264Z,79.44
2018-07-19T01:51:53.249Z,80.30
2018-07-19T01:52:53.227Z,80.34
2018-07-19T01:53:53.214Z,79.82
2018-07-19T01:54:53.195Z,80.01
2018-07-19T01:55:53.180Z,80.30
2018-07-19T01:56:53.158Z,79.53
2018-07-19T01:57:53.144Z,79.72
2018-07-19T01:58:53.134Z,80.01
2018-07-19T01:59:53.110Z,80.01
2018-07-19T02:00:53.096Z,80.20
2018-07-19T02:01:53.072Z,80.20
2018-07-19T02:02:53.060Z,80.11
2018-07-19T02:03:53.043Z,80.30
2018-07-19T02:04:53.030Z,80.30
2018-07-19T02:05:53.010Z,80.68
2018-07-19T02:06:52.992Z,80.30
2018-07-19T02:07:52.976Z,80.30
2018-07-19T02:08:52.955Z,80.97
2018-07-19T02:09:52.941Z,80.78
2018-07-19T02:10:52.920Z,81.07
2018-07-19T02:11:52.905Z,81.07
2018-07-19T02:12:52.891Z,81.45
2018-07-19T02:13:52.871Z,81.64
2018-07-19T02:14:52.852Z,80.97
2018-07-19T02:15:52.840Z,81.07
2018-07-19T02:16:52.824Z,81.64
2018-07-19T02:17:52.806Z,81.45
2018-07-19T02:18:52.788Z,81.45
2018-07-19T02:19:52.771Z,81.74
2018-07-19T02:20:52.754Z,81.45
2018-07-19T02:21:52.743Z,81.64
2018-07-19T02:22:52.725Z,80.97
2018-07-19T02:23:52.700Z,81.45
2018-07-19T02:24:52.692Z,81.45
2018-07-19T02:25:52.662Z,82.12
2018-07-19T02:26:52.654Z,81.74
2018-07-19T02:27:52.631Z,81.26
2018-07-19T02:28:52.618Z,81.45
2018-07-19T02:29:52.601Z,81.51
2018-07-19T02:30:52.584Z,81.84
2018-07-19T02:31:52.565Z,81.84
2018-07-19T02:32:52.549Z,81.93
2018-07-19T02:33:52.532Z,81.60
2018-07-19T02:34:52.518Z,81.60
2018-07-19T02:35:52.498Z,81.26
2018-07-19T02:36:52.480Z,81.98
2018-07-19T02:37:52.464Z,81.98
2018-07-19T02:38:52.447Z,81.70
2018-07-19T02:39:52.429Z,82.56
2018-07-19T02:40:52.418Z,82.56
2018-07-19T02:41:52.397Z,82.75
2018-07-19T02:42:52.378Z,82.85
2018-07-19T02:43:52.411Z,83.23
2018-07-19T02:44:52.345Z,83.23
2018-07-19T02:45:52.326Z,83.91
2018-07-19T02:46:52.310Z,84.19
2018-07-19T02:47:52.303Z,84.58
2018-07-19T02:48:52.273Z,84.09
2018-07-19T02:49:52.257Z,84.86
2018-07-19T02:50:52.243Z,84.95
2018-07-19T02:51:52.222Z,84.67
2018-07-19T02:52:52.202Z,85.34
2018-07-19T02:53:52.188Z,85.82
2018-07-19T02:54:52.170Z,85.58
2018-07-19T02:55:52.157Z,86.16
2018-07-19T02:56:52.146Z,86.16
2018-07-19T02:57:52.114Z,85.97
2018-07-19T02:58:52.101Z,85.97
2018-07-19T02:59:52.089Z,86.25
2018-07-19T03:00:52.061Z,86.25
2018-07-19T03:01:52.051Z,86.07
2018-07-19T03:02:52.032Z,86.25
2018-07-19T03:03:52.015Z,86.16
2018-07-19T03:04:52.004Z,86.83
2018-07-19T03:05:51.981Z,86.35
2018-07-19T03:06:51.962Z,86.45
2018-07-19T03:07:51.947Z,86.54
2018-07-19T03:08:51.929Z,87.02
2018-07-19T03:09:51.913Z,87.70
2018-07-19T03:10:51.885Z,87.41
2018-07-19T03:11:51.879Z,87.21
2018-07-19T03:12:51.862Z,87.60
2018-07-19T03:13:51.836Z,87.31
2018-07-19T03:14:51.825Z,87.88
2018-07-19T03:15:51.808Z,87.70
2018-07-19T03:16:51.789Z,87.98
2018-07-19T03:17:51.771Z,88.17
2018-07-19T03:18:51.755Z,88.84
2018-07-19T03:19:51.738Z,88.65
2018-07-19T03:20:51.719Z,88.17
2018-07-19T03:21:51.702Z,88.37
2018-07-19T03:22:51.683Z,88.27
2018-07-19T03:23:51.664Z,88.37
2018-07-19T03:24:51.650Z,89.23
2018-07-19T03:25:51.635Z,89.23
2018-07-19T03:26:51.612Z,89.13
2018-07-19T03:27:51.596Z,89.42
2018-07-19T03:28:51.579Z,88.94
2018-07-19T03:29:51.562Z,89.32
2018-07-19T03:30:51.564Z,89.71
2018-07-19T03:31:51.521Z,89.13
2018-07-19T03:32:51.510Z,89.80
2018-07-19T03:33:51.493Z,89.80
2018-07-19T03:34:51.473Z,89.61
2018-07-19T03:35:51.457Z,90.38
2018-07-19T03:36:51.438Z,90.28
2018-07-19T03:37:51.422Z,90.28
2018-07-19T03:38:51.404Z,90.00
2018-07-19T03:39:51.386Z,90.19
2018-07-19T03:40:51.365Z,90.28
2018-07-19T03:41:51.352Z,90.19
2018-07-19T03:42:51.333Z,90.23
2018-07-19T03:43:51.313Z,90.53
2018-07-19T03:44:51.298Z,90.62
2018-07-19T03:45:51.280Z,90.62
2018-07-19T03:46:51.264Z,91.10
2018-07-19T03:47:51.242Z,90.81
2018-07-19T03:48:51.223Z,91.00
2018-07-19T03:49:51.209Z,90.91
2018-07-19T03:50:51.193Z,90.81
2018-07-19T03:51:51.184Z,91.00
2018-07-19T03:52:51.160Z,90.91
2018-07-19T03:53:51.136Z,90.81
2018-07-19T03:54:51.125Z,91.10
2018-07-19T03:55:51.104Z,90.81
2018-07-19T03:56:51.084Z,91.49
2018-07-19T03:57:51.067Z,91.19
2018-07-19T03:58:51.057Z,91.00
2018-07-19T03:59:51.038Z,90.81
2018-07-19T04:00:51.017Z,91.58
2018-07-19T04:01:51.014Z,91.00
2018-07-19T04:02:51.000Z,90.86
2018-07-19T04:03:50.964Z,90.91
2018-07-19T04:04:50.957Z,91.34
2018-07-19T04:05:50.955Z,90.86
2018-07-19T04:06:50.911Z,91.05
2018-07-19T04:07:50.895Z,91.05
2018-07-19T04:08:50.876Z,90.86
2018-07-19T04:09:50.858Z,90.76
2018-07-19T04:10:50.840Z,91.53
2018-07-19T04:11:50.830Z,91.05
2018-07-19T04:12:50.820Z,91.05
2018-07-19T04:13:50.788Z,90.86
2018-07-19T04:14:50.767Z,90.86
2018-07-19T04:15:50.748Z,91.05
2018-07-19T04:16:50.736Z,91.14
2018-07-19T04:17:50.713Z,91.14
2018-07-19T04:18:50.701Z,90.95
2018-07-19T04:19:50.681Z,91.05
2018-07-19T04:20:50.666Z,90.86
2018-07-19T04:21:50.645Z,90.86
2018-07-19T04:22:50.630Z,90.95
2018-07-19T04:23:50.605Z,90.95
2018-07-19T04:24:50.600Z,91.72
2018-07-19T04:25:50.575Z,91.24
2018-07-19T04:26:50.558Z,91.05
2018-07-19T04:27:50.541Z,91.14
2018-07-19T04:28:50.523Z,91.91
2018-07-19T04:29:50.504Z,91.82
2018-07-19T04:30:50.488Z,91.63
2018-07-19T04:31:50.473Z,91.82
2018-07-19T04:32:50.455Z,91.43
2018-07-19T04:33:50.441Z,90.76
2018-07-19T04:34:50.419Z,90.86
2018-07-19T04:35:50.402Z,91.05
2018-07-19T04:36:50.383Z,91.72
2018-07-19T04:37:50.370Z,91.82
2018-07-19T04:38:50.341Z,92.05
2018-07-19T04:39:50.332Z,91.57
2018-07-19T04:40:50.313Z,91.86
2018-07-19T04:41:50.291Z,90.81
2018-07-19T04:42:50.274Z,91.09
2018-07-19T04:43:50.264Z,90.90
2018-07-19T04:44:50.244Z,91.19
2018-07-19T04:45:50.222Z,90.71
2018-07-19T04:46:50.212Z,90.81
2018-07-19T04:47:50.187Z,90.52
2018-07-19T04:48:50.177Z,90.61
2018-07-19T04:49:50.155Z,91.38
2018-07-19T04:50:50.140Z,91.09
2018-07-19T04:51:50.121Z,91.00
2018-07-19T04:52:50.106Z,91.48
2018-07-19T04:53:50.089Z,91.09
2018-07-19T04:54:50.070Z,91.19
2018-07-19T04:55:50.055Z,91.28
2018-07-19T04:56:50.031Z,90.61
2018-07-19T04:57:50.021Z,90.14
2018-07-19T04:58:50.005Z,90.14
2018-07-19T04:59:49.984Z,90.66
2018-07-19T05:00:49.971Z,90.56
2018-07-19T05:01:49.982Z,89.51
2018-07-19T05:02:49.934Z,89.32
2018-07-19T05:03:49.917Z,89.32
2018-07-19T05:04:49.902Z,88.35
2018-07-19T05:05:49.883Z,89.41
2018-07-19T05:06:49.863Z,88.45
2018-07-19T05:07:52.433Z,88.11
2018-07-19T05:08:49.835Z,87.30
2018-07-19T05:09:49.829Z,87.78
2018-07-19T05:10:49.800Z,87.44
2018-07-19T05:11:49.777Z,87.25
2018-07-19T05:12:49.759Z,87.54
2018-07-19T05:13:49.747Z,87.25
2018-07-19T05:14:49.725Z,86.87
2018-07-19T05:15:49.716Z,86.10
2018-07-19T05:16:49.699Z,86.19
2018-07-19T05:17:49.684Z,86.10
2018-07-19T05:18:49.660Z,86.87
2018-07-19T05:19:49.649Z,86.10
2018-07-19T05:20:49.632Z,85.81
2018-07-19T05:21:49.611Z,86.52
2018-07-19T05:22:49.593Z,87.01
2018-07-19T05:23:49.580Z,86.24
2018-07-19T05:24:49.563Z,86.33
2018-07-19T05:25:49.552Z,86.05
2018-07-19T05:26:49.536Z,85.85
2018-07-19T05:27:49.514Z,85.85
2018-07-19T05:28:49.523Z,85.85
2018-07-19T05:29:49.485Z,85.71
2018-07-19T05:30:49.465Z,85.71
2018-07-19T05:31:49.443Z,84.45
2018-07-19T05:32:49.437Z,85.22
2018-07-19T05:33:49.423Z,83.97
2018-07-19T05:34:49.400Z,84.07
2018-07-19T05:35:49.383Z,84.45
2018-07-19T05:36:49.372Z,84.74
2018-07-19T05:37:49.353Z,84.07
2018-07-19T05:38:49.338Z,83.40
2018-07-19T05:39:49.321Z,82.96
2018-07-19T05:40:49.305Z,82.29
2018-07-19T05:41:49.290Z,83.06
2018-07-19T05:42:49.279Z,83.92
2018-07-19T05:43:49.255Z,84.01
2018-07-19T05:46:43.351Z,82.38
2018-07-19T05:47:22.305Z,81.90
2018-07-19T05:48:22.291Z,81.56
2018-07-19T05:49:22.280Z,80.98
2018-07-19T05:50:22.259Z,80.50
2018-07-19T05:51:22.244Z,79.63
2018-07-19T05:52:22.232Z,78.28
2018-07-19T05:53:22.213Z,78.86
2018-07-19T05:54:22.200Z,79.05
2018-07-19T05:55:22.186Z,77.90
2018-07-19T05:56:22.168Z,78.48
2018-07-19T05:57:22.151Z,78.48
2018-07-19T05:58:22.228Z,78.71
2018-07-19T05:59:22.122Z,78.52
2018-07-19T06:00:22.109Z,78.61
2018-07-19T06:01:22.091Z,78.61
2018-07-19T06:02:22.079Z,77.94
2018-07-19T06:03:22.067Z,78.90
2018-07-19T06:04:22.049Z,78.33
2018-07-19T06:05:22.034Z,77.94
2018-07-19T06:06:22.019Z,77.11
2018-07-19T06:07:22.005Z,76.06
2018-07-19T06:08:21.990Z,75.28
2018-07-19T06:09:21.982Z,74.71
2018-07-19T06:10:21.960Z,74.13
2018-07-19T06:11:21.948Z,73.65
2018-07-19T06:12:21.927Z,73.36
2018-07-19T06:13:21.916Z,74.32
2018-07-19T06:14:21.905Z,74.36
2018-07-19T06:15:21.891Z,74.84
2018-07-19T06:16:21.878Z,75.51
2018-07-19T06:17:21.863Z,75.23
2018-07-19T06:18:21.852Z,74.93
2018-07-19T06:19:21.836Z,73.39
2018-07-19T06:20:21.823Z,74.16
2018-07-19T06:21:21.808Z,74.40
2018-07-19T06:22:21.797Z,73.33
2018-07-19T06:23:21.779Z,72.08
2018-07-19T06:24:21.768Z,71.60
2018-07-19T06:25:21.751Z,74.58
2018-07-19T06:26:21.744Z,74.78
2018-07-19T06:27:21.726Z,72.37
2018-07-19T06:28:21.754Z,71.89
2018-07-19T06:29:21.703Z,71.70
2018-07-19T06:30:21.689Z,72.66
2018-07-19T06:31:21.679Z,71.34
2018-07-19T06:32:21.664Z,71.06
2018-07-19T06:33:21.651Z,71.06
2018-07-19T06:34:21.641Z,71.25
2018-07-19T06:35:21.655Z,71.73
2018-07-19T06:36:21.613Z,70.76
2018-07-19T06:37:21.600Z,69.90
2018-07-19T06:38:21.589Z,70.76
2018-07-19T06:39:21.579Z,72.31
2018-07-19T06:40:21.565Z,71.44
2018-07-19T06:41:21.551Z,70.67
2018-07-19T06:42:21.541Z,71.06
2018-07-19T06:43:21.530Z,71.73
2018-07-19T06:44:21.514Z,71.44
2018-07-19T06:45:21.503Z,72.89
2018-07-19T06:46:21.491Z,72.99
2018-07-19T06:47:21.476Z,71.64
2018-07-19T06:48:21.466Z,71.25
2018-07-19T06:49:21.458Z,71.25
2018-07-19T06:50:21.442Z,70.48
2018-07-19T06:51:21.428Z,71.34
2018-07-19T06:52:21.416Z,70.38
2018-07-19T06:53:21.403Z,70.48
2018-07-19T06:54:21.393Z,72.02
2018-07-19T06:55:21.384Z,73.85
2018-07-19T06:56:21.368Z,72.89
2018-07-19T06:57:21.356Z,74.14
2018-07-19T06:58:21.342Z,72.21
2018-07-19T06:59:21.335Z,72.06
2018-07-19T07:00:21.323Z,70.90
2018-07-19T07:01:21.303Z,69.26
2018-07-19T07:02:21.297Z,69.35
2018-07-19T07:03:21.282Z,71.38
2018-07-19T07:04:21.274Z,70.42
2018-07-19T07:05:21.268Z,68.49
2018-07-19T07:06:21.248Z,66.94
2018-07-19T07:07:21.239Z,67.81
2018-07-19T07:08:21.218Z,66.66
2018-07-19T07:09:21.215Z,68.23
2018-07-19T07:10:21.197Z,67.75
2018-07-19T07:11:21.189Z,69.29
2018-07-19T07:12:21.196Z,68.55
2018-07-19T07:13:21.159Z,67.30
2018-07-19T07:14:21.149Z,65.85
2018-07-19T07:15:21.144Z,64.79
2018-07-19T07:16:21.126Z,62.18
2018-07-19T07:17:21.118Z,64.69
2018-07-19T07:18:21.110Z,65.17
2018-07-19T07:19:21.094Z,66.33
2018-07-19T07:20:21.084Z,66.33
2018-07-19T07:21:21.184Z,65.56
2018-07-19T07:22:21.087Z,65.20
2018-07-19T07:23:21.055Z,66.08
2018-07-19T07:24:21.045Z,65.20
2018-07-19T07:25:21.036Z,64.18
2018-07-19T07:26:21.027Z,62.73
2018-07-19T07:27:21.045Z,63.24
2018-07-19T07:28:21.053Z,62.63
2018-07-19T07:29:20.992Z,61.66
2018-07-19T07:30:20.987Z,63.40
2018-07-19T07:31:20.974Z,63.89
2018-07-19T07:32:20.962Z,64.08
2018-07-19T07:33:20.952Z,61.66
2018-07-19T07:34:20.942Z,62.15
2018-07-19T07:35:20.927Z,61.86
2018-07-19T07:36:20.924Z,63.11
2018-07-19T07:37:20.915Z,64.66
2018-07-19T07:38:20.900Z,65.05
2018-07-19T07:39:20.895Z,64.95
2018-07-19T07:40:20.882Z,63.69
2018-07-19T07:41:20.872Z,63.14
2018-07-19T07:42:20.863Z,65.17
2018-07-19T07:43:20.851Z,64.50
2018-07-19T07:44:20.836Z,61.50
2018-07-19T07:45:20.832Z,64.01
2018-07-19T07:46:20.824Z,62.95
2018-07-19T07:47:20.812Z,61.69
2018-07-19T07:48:20.838Z,58.80
2018-07-19T07:49:20.794Z,59.95
2018-07-19T07:50:20.786Z,60.44
2018-07-19T07:51:20.772Z,62.27
2018-07-19T07:52:20.760Z,60.14
2018-07-19T07:53:20.751Z,60.11
2018-07-19T07:54:20.749Z,62.27
2018-07-19T07:55:20.733Z,61.89
2018-07-19T07:56:20.717Z,63.53
2018-07-19T07:57:20.712Z,62.66
2018-07-19T07:58:20.699Z,62.01
2018-07-19T07:59:20.701Z,61.72
2018-07-19T08:00:20.727Z,61.24
2018-07-19T08:01:20.671Z,60.66
2018-07-19T08:02:20.661Z,60.27
2018-07-19T08:03:20.650Z,58.04
2018-07-19T08:04:20.642Z,56.50
2018-07-19T08:05:20.631Z,60.47
2018-07-19T08:06:20.626Z,60.08
2018-07-19T08:07:20.611Z,58.63
2018-07-19T08:08:20.602Z,58.92
2018-07-19T08:09:20.590Z,58.04
2018-07-19T08:10:20.582Z,57.40
2018-07-19T08:11:20.575Z,58.47
2018-07-19T08:12:20.563Z,58.17
2018-07-19T08:13:20.551Z,59.33
2018-07-19T08:14:20.534Z,59.98
2018-07-19T08:15:20.535Z,59.79
2018-07-19T08:16:20.522Z,58.14
2018-07-19T08:17:20.513Z,58.24
2018-07-19T08:18:20.505Z,59.31
2018-07-19T08:19:20.493Z,61.33
2018-07-19T08:20:20.485Z,61.56
2018-07-19T08:21:20.480Z,60.78
2018-07-19T08:22:20.466Z,58.47
2018-07-19T08:23:20.456Z,60.50
2018-07-19T08:24:20.443Z,61.36
2018-07-19T08:25:20.434Z,63.11
2018-07-19T08:26:20.425Z,61.66
2018-07-19T08:27:20.414Z,61.76
2018-07-19T08:28:20.402Z,58.95
2018-07-19T08:29:20.406Z,58.98
2018-07-19T08:30:20.385Z,59.66
2018-07-19T08:31:20.377Z,57.98
2018-07-19T08:32:20.388Z,58.07
2018-07-19T08:33:20.357Z,56.92
2018-07-19T08:34:20.347Z,56.52
2018-07-19T08:35:20.337Z,57.98
2018-07-19T08:36:20.325Z,59.63
2018-07-19T08:37:20.318Z,60.50
2018-07-19T08:38:20.309Z,58.27
2018-07-19T08:39:20.300Z,59.43
2018-07-19T08:40:20.290Z,61.36
2018-07-19T08:41:20.282Z,61.21
2018-07-19T08:42:20.270Z,61.59
2018-07-19T08:43:20.262Z,59.07
2018-07-19T08:44:20.246Z,59.66
2018-07-19T08:45:20.241Z,57.17
2018-07-19T08:46:20.233Z,57.94
2018-07-19T08:47:20.224Z,57.26
2018-07-19T08:48:20.215Z,56.85
2018-07-19T08:49:20.196Z,56.65
2018-07-19T08:50:20.186Z,56.07
2018-07-19T08:51:20.185Z,56.56
2018-07-19T08:52:20.183Z,57.07
2018-07-19T08:53:20.166Z,55.04
2018-07-19T08:54:20.160Z,55.90
2018-07-19T08:55:20.151Z,54.86
2018-07-19T08:56:20.140Z,53.80
2018-07-19T08:57:20.133Z,53.51
2018-07-19T08:58:20.122Z,54.38
2018-07-19T08:59:20.118Z,55.83
2018-07-19T09:00:20.102Z,54.86
2018-07-19T09:01:20.094Z,53.70
2018-07-19T09:02:20.104Z,53.92
2018-07-19T09:03:20.077Z,52.56
2018-07-19T09:04:20.066Z,52.18
2018-07-19T09:05:20.058Z,52.08
2018-07-19T09:06:20.049Z,51.47
2018-07-19T09:07:20.044Z,53.61
2018-07-19T09:08:20.030Z,52.93
2018-07-19T09:09:20.024Z,53.02
2018-07-19T09:10:20.013Z,54.58
2018-07-19T09:11:20.003Z,52.73
2018-07-19T09:12:19.992Z,52.06
2018-07-19T09:13:19.986Z,53.12
2018-07-19T09:14:19.982Z,53.41
2018-07-19T09:15:19.965Z,53.70
2018-07-19T09:16:19.960Z,55.26
2018-07-19T09:17:19.950Z,54.41
2018-07-19T09:18:19.938Z,53.89
2018-07-19T09:19:19.938Z,51.96
2018-07-19T09:20:19.922Z,52.93
2018-07-19T09:21:19.922Z,54.58
2018-07-19T09:22:19.906Z,54.09
2018-07-19T09:23:19.895Z,53.12
2018-07-19T09:24:19.883Z,52.44
2018-07-19T09:25:19.877Z,52.28
2018-07-19T09:26:19.865Z,51.11
2018-07-19T09:27:19.861Z,49.37
2018-07-19T09:28:19.842Z,50.34
2018-07-19T09:29:19.847Z,48.78
2018-07-19T09:30:19.829Z,49.17
2018-07-19T09:31:19.818Z,48.00
2018-07-19T09:32:19.808Z,48.90
2018-07-19T09:33:19.800Z,49.49
2018-07-19T09:34:19.790Z,49.68
2018-07-19T09:35:19.783Z,50.56
2018-07-19T09:36:19.772Z,49.68
2018-07-19T09:37:19.759Z,48.13
2018-07-19T09:38:19.765Z,47.91
2018-07-19T09:39:19.743Z,48.97
2018-07-19T09:40:19.734Z,49.58
2018-07-19T09:41:19.723Z,49.49
2018-07-19T09:42:19.719Z,49.39
2018-07-19T09:43:19.709Z,48.32
2018-07-19T09:44:19.696Z,47.93
2018-07-19T09:45:19.688Z,48.32
2018-07-19T09:46:19.676Z,48.32
2018-07-19T09:47:19.670Z,47.93
2018-07-19T09:48:19.663Z,48.03
2018-07-19T09:49:19.648Z,48.52
2018-07-19T09:50:19.642Z,49.19
2018-07-19T09:51:19.627Z,49.00
2018-07-19T09:52:19.620Z,47.93
2018-07-19T09:53:19.614Z,48.71
2018-07-19T09:54:19.608Z,49.32
2018-07-19T09:55:19.597Z,48.64
2018-07-19T09:56:19.584Z,49.61
2018-07-19T09:57:19.577Z,49.02
2018-07-19T09:58:19.569Z,48.25
2018-07-19T09:59:19.559Z,48.08
2018-07-19T10:00:19.546Z,48.95
2018-07-19T10:01:19.535Z,48.47
2018-07-19T10:02:19.528Z,48.08
2018-07-19T10:03:19.519Z,47.23
2018-07-19T10:04:19.508Z,47.01
2018-07-19T10:05:19.500Z,47.69
2018-07-19T10:06:19.490Z,48.58
2018-07-19T10:07:19.663Z,49.17
2018-07-19T10:08:19.474Z,47.32
2018-07-19T10:09:19.465Z,46.04
2018-07-19T10:10:19.486Z,45.36
2018-07-19T10:11:19.444Z,45.17
2018-07-19T10:12:19.435Z,45.94
2018-07-19T10:13:19.430Z,44.27
2018-07-19T10:14:19.416Z,45.41
2018-07-19T10:15:19.628Z,45.48
2018-07-19T10:16:19.398Z,46.84
2018-07-19T10:17:19.420Z,48.61
2018-07-19T10:18:19.380Z,48.61
2018-07-19T10:19:19.371Z,50.72
2018-07-19T10:20:19.363Z,50.62
2018-07-19T10:21:19.361Z,49.66
2018-07-19T10:22:19.346Z,49.17
2018-07-19T10:23:19.333Z,48.69
2018-07-19T10:24:19.384Z,50.43
2018-07-19T10:25:19.315Z,49.82
2018-07-19T10:26:19.336Z,49.82
2018-07-19T10:27:19.408Z,48.66
2018-07-19T10:28:19.283Z,51.09
2018-07-19T10:29:19.276Z,51.86
2018-07-19T10:30:19.268Z,50.31
2018-07-19T10:31:19.424Z,49.24
2018-07-19T10:32:19.389Z,49.63
2018-07-19T10:33:19.243Z,49.82
2018-07-19T10:34:19.237Z,51.57
2018-07-19T10:35:19.224Z,51.50
2018-07-19T10:36:19.207Z,50.82
2018-07-19T10:37:19.197Z,49.07
2018-07-19T10:38:19.240Z,48.00
2018-07-19T10:39:19.186Z,49.00
2018-07-19T10:40:19.184Z,49.29
2018-07-19T10:41:19.165Z,47.93
2018-07-19T10:42:19.154Z,47.28
2018-07-19T10:43:19.150Z,47.11
2018-07-19T10:44:19.141Z,49.15
2018-07-19T10:45:19.130Z,45.65
2018-07-19T10:46:19.124Z,45.67
2018-07-19T10:47:19.112Z,45.67
2018-07-19T10:48:19.094Z,47.52
2018-07-19T10:49:19.091Z,47.13
2018-07-19T10:50:19.085Z,42.10
2018-07-19T10:51:19.075Z,43.87
2018-07-19T10:52:19.065Z,43.77
2018-07-19T10:53:19.061Z,42.24
2018-07-19T10:54:19.056Z,41.77
2018-07-19T10:55:19.042Z,41.67
2018-07-19T10:56:19.037Z,42.38
2018-07-19T10:57:19.027Z,40.91
2018-07-19T10:58:19.018Z,38.65
2018-07-19T10:59:19.011Z,40.70
2018-07-19T11:00:19.003Z,40.91
2018-07-19T11:01:18.994Z,39.65
2018-07-19T11:02:18.979Z,38.96
2018-07-19T11:03:18.972Z,39.47
2018-07-19T11:04:18.971Z,38.96
2018-07-19T11:05:18.965Z,38.28
2018-07-19T11:06:18.956Z,37.23
2018-07-19T11:07:18.952Z,36.25
2018-07-19T11:08:18.943Z,37.29
2018-07-19T11:09:18.961Z,39.24
2018-07-19T11:10:18.947Z,37.85
2018-07-19T11:11:18.915Z,39.12
2018-07-19T11:12:18.915Z,40.66
2018-07-19T11:13:18.905Z,41.36
2018-07-19T11:14:18.899Z,41.94
2018-07-19T11:15:18.889Z,39.90
2018-07-19T11:16:18.887Z,39.70
2018-07-19T11:17:18.867Z,40.01
2018-07-19T11:18:18.867Z,41.38
2018-07-19T11:19:18.867Z,41.30
2018-07-19T11:20:18.866Z,41.11
2018-07-19T11:21:18.901Z,39.62
2018-07-19T11:22:18.840Z,39.92
2018-07-19T11:23:18.823Z,39.14
2018-07-19T11:24:18.822Z,38.46
2018-07-19T11:25:18.816Z,40.19
2018-07-19T11:26:18.809Z,40.68
2018-07-19T11:27:18.794Z,39.72
2018-07-19T11:28:18.806Z,39.92
2018-07-19T11:29:18.789Z,39.72
2018-07-19T11:30:18.783Z,40.19
2018-07-19T11:31:18.784Z,41.05
2018-07-19T11:32:18.784Z,40.75
2018-07-19T11:33:18.757Z,39.08
2018-07-19T11:34:18.755Z,40.72
2018-07-19T11:35:18.764Z,41.98
2018-07-19T11:36:18.734Z,42.95
2018-07-19T11:37:18.870Z,42.95
2018-07-19T11:38:18.725Z,42.93
2018-07-19T11:39:18.707Z,43.73
2018-07-19T11:40:18.711Z,42.18
2018-07-19T11:41:18.697Z,42.29
2018-07-19T11:42:18.689Z,42.29
2018-07-19T11:43:18.680Z,41.14
2018-07-19T11:44:18.671Z,41.83
2018-07-19T11:45:18.656Z,38.54
2018-07-19T11:46:18.649Z,37.85
2018-07-19T11:47:18.653Z,39.14
2018-07-19T11:48:18.645Z,40.72
2018-07-19T11:49:18.634Z,41.11
2018-07-19T11:50:18.638Z,39.55
2018-07-19T11:51:18.623Z,39.06
2018-07-19T11:52:18.607Z,37.97
2018-07-19T11:53:18.603Z,38.07
2018-07-19T11:54:18.590Z,39.72
2018-07-19T11:55:18.587Z,39.82
2018-07-19T11:56:18.579Z,38.95
2018-07-19T11:57:18.575Z,39.34
2018-07-19T11:58:18.697Z,39.36
2018-07-19T11:59:18.552Z,39.06
2018-07-19T12:00:18.544Z,39.75
2018-07-19T12:01:18.543Z,41.13
2018-07-19T12:02:18.534Z,39.20
2018-07-19T12:03:18.531Z,38.42
2018-07-19T12:04:18.523Z,37.35
2018-07-19T12:05:18.515Z,37.45
2018-07-19T12:06:18.505Z,36.76
2018-07-19T12:07:18.501Z,37.91
2018-07-19T12:08:18.493Z,38.22
2018-07-19T12:09:18.486Z,37.73
2018-07-19T12:10:18.480Z,36.08
2018-07-19T12:11:18.471Z,36.58
2018-07-19T12:12:18.472Z,37.37
2018-07-19T12:13:18.459Z,36.39
2018-07-19T12:14:18.454Z,37.05
2018-07-19T12:15:18.446Z,38.32
2018-07-19T12:16:18.434Z,37.35
2018-07-19T12:17:18.431Z,37.25
2018-07-19T12:18:18.425Z,37.15
2018-07-19T12:19:18.418Z,37.45
2018-07-19T12:20:18.445Z,37.07
2018-07-19T12:21:18.406Z,35.02
2018-07-19T12:22:18.398Z,36.78
2018-07-19T12:23:18.393Z,37.46
2018-07-19T12:24:18.396Z,37.17
2018-07-19T12:25:18.390Z,36.68
2018-07-19T12:26:18.523Z,36.00
2018-07-19T12:27:18.361Z,35.51
2018-07-19T12:28:18.355Z,35.80
2018-07-19T12:29:18.348Z,36.10
2018-07-19T12:30:18.343Z,37.55
2018-07-19T12:31:18.399Z,35.61
2018-07-19T12:32:18.336Z,36.10
2018-07-19T12:33:18.325Z,39.10
2018-07-19T12:34:18.321Z,36.25
2018-07-19T12:35:18.316Z,35.86
2018-07-19T12:36:18.307Z,37.33
2018-07-19T12:37:18.302Z,39.08
2018-07-19T12:38:18.436Z,38.10
2018-07-19T12:39:18.371Z,37.43
2018-07-19T12:40:18.286Z,37.43
2018-07-19T12:41:18.384Z,38.10
2018-07-19T12:42:18.372Z,37.83
2018-07-19T12:43:18.417Z,38.22
2018-07-19T12:44:18.271Z,38.12
2018-07-19T12:45:18.340Z,37.43
2018-07-19T12:46:18.248Z,36.24
2018-07-19T12:47:18.236Z,36.71
2018-07-19T12:48:18.227Z,35.52
2018-07-19T12:49:18.222Z,36.88
2018-07-19T12:50:18.221Z,39.00
2018-07-19T12:51:18.215Z,40.56
2018-07-19T12:52:18.206Z,38.44
2018-07-19T12:53:18.191Z,39.12
2018-07-19T12:54:18.190Z,41.77